Time;durP1;ratioP1;P1;durP2;ratioP2;P2;SDS_P1;SDS_P2;PMS_P1;PMS_P2;Temp;Humidity;BMP_temperature;BMP_pressure;BME280_temperature;BME280_humidity;BME280_pressure;Samples;Min_cycle;Max_cycle;Signal;HPM_P1;HPM_P2
2023/03/25 00:00:56;;;;;;;3.03;1.50;;;10.10;1.00;;;;;;5073470;28;20509;-64
2023/03/25 00:03:25;;;;;;;3.00;1.65;;;10.10;1.00;;;;;;5073384;28;20027;-64
2023/03/25 00:05:51;;;;;;;2.58;1.60;;;10.10;1.00;;;;;;5073330;28;20435;-64
2023/03/25 00:08:16;;;;;;;3.83;1.60;;;10.10;1.00;;;;;;5073502;28;20101;-64
2023/03/25 00:10:42;;;;;;;3.72;1.63;;;10.00;1.00;;;;;;5073144;28;20020;-64
2023/03/25 00:13:08;;;;;;;3.22;1.65;;;10.00;1.00;;;;;;5073207;28;20029;-64
2023/03/25 00:15:33;;;;;;;3.95;1.70;;;9.90;1.00;;;;;;5073238;28;20048;-64
2023/03/25 00:18:00;;;;;;;5.45;1.67;;;9.90;2.40;;;;;;5073047;28;20055;-64
2023/03/25 00:20:26;;;;;;;2.85;1.45;;;9.90;7.30;;;;;;5073460;28;20027;-64
2023/03/25 00:22:52;;;;;;;5.22;1.58;;;9.80;10.20;;;;;;5073113;28;20021;-64
2023/03/25 00:25:19;;;;;;;4.95;1.70;;;9.80;12.90;;;;;;5073234;28;20508;-64
2023/03/25 00:27:47;;;;;;;8.30;1.77;;;9.80;17.30;;;;;;5073223;28;20039;-64
2023/03/25 00:30:14;;;;;;;4.30;1.50;;;9.70;14.40;;;;;;5073071;28;20032;-64
2023/03/25 00:32:40;;;;;;;4.75;1.90;;;9.80;17.50;;;;;;5073113;28;20118;-64
2023/03/25 00:35:07;;;;;;;4.55;1.50;;;9.70;21.90;;;;;;5073116;28;20565;-64
2023/03/25 00:37:33;;;;;;;2.22;1.60;;;9.70;21.70;;;;;;5073004;28;20107;-64
2023/03/25 00:39:58;;;;;;;3.25;1.75;;;9.70;20.00;;;;;;5075967;28;20063;-63
2023/03/25 00:42:25;;;;;;;7.85;1.50;;;9.70;15.00;;;;;;5077151;28;20044;-64
2023/03/25 00:44:52;;;;;;;4.40;1.63;;;9.70;14.50;;;;;;5076736;28;20108;-64
2023/03/25 00:47:19;;;;;;;8.82;1.90;;;9.70;18.20;;;;;;5076931;28;20028;-64
2023/03/25 00:49:45;;;;;;;5.65;1.83;;;9.60;13.20;;;;;;5076517;28;20059;-64
2023/03/25 00:52:11;;;;;;;3.40;1.40;;;9.60;9.80;;;;;;5076828;28;20468;-63
2023/03/25 00:54:36;;;;;;;4.80;1.63;;;9.60;12.10;;;;;;5076911;28;20111;-63
2023/03/25 00:57:02;;;;;;;5.25;1.38;;;9.60;15.70;;;;;;5076606;28;20062;-64
2023/03/25 00:59:28;;;;;;;9.68;1.90;;;9.60;10.20;;;;;;5076418;28;20052;-64
2023/03/25 01:01:55;;;;;;;5.13;1.48;;;9.60;11.50;;;;;;5076802;28;20037;-64
2023/03/25 01:04:20;;;;;;;4.30;1.52;;;9.60;6.40;;;;;;5076757;28;20031;-64
2023/03/25 01:06:50;;;;;;;3.42;1.63;;;9.60;8.90;;;;;;5076636;28;20032;-64
2023/03/25 01:09:16;;;;;;;8.27;1.50;;;9.60;7.90;;;;;;5076563;28;20029;-64
2023/03/25 01:11:43;;;;;;;4.35;1.35;;;9.60;1.00;;;;;;5076351;28;20425;-64
2023/03/25 01:14:15;;;;;;;8.35;1.63;;;9.60;2.50;;;;;;5076123;28;20480;-67
2023/03/25 01:16:41;;;;;;;6.85;2.03;;;9.60;2.60;;;;;;5076061;28;20031;-64
2023/03/25 01:19:07;;;;;;;8.95;2.08;;;9.60;1.00;;;;;;5076419;28;20056;-64
2023/03/25 01:21:35;;;;;;;9.30;2.10;;;9.60;1.00;;;;;;5075275;28;20021;-64
2023/03/25 01:24:00;;;;;;;10.02;1.90;;;9.60;1.00;;;;;;5076174;28;20386;-64
2023/03/25 01:26:26;;;;;;;6.38;1.48;;;9.60;1.00;;;;;;5076294;28;20099;-64
2023/03/25 01:28:52;;;;;;;7.18;1.60;;;9.60;1.00;;;;;;5076221;28;20028;-64
2023/03/25 01:31:18;;;;;;;8.05;1.60;;;9.60;1.00;;;;;;5076120;28;20107;-66
2023/03/25 01:33:44;;;;;;;8.07;1.60;;;9.60;1.00;;;;;;5075801;28;20032;-64
2023/03/25 01:36:11;;;;;;;5.10;2.08;;;9.60;1.00;;;;;;5076281;28;20478;-64
2023/03/25 01:38:39;;;;;;;10.73;2.03;;;9.60;1.00;;;;;;5075863;28;20040;-65
2023/03/25 01:41:05;;;;;;;14.98;2.45;;;9.60;1.00;;;;;;5076016;28;20153;-65
2023/03/25 01:43:32;;;;;;;8.00;2.15;;;9.50;1.00;;;;;;5075769;28;20031;-64
2023/03/25 01:45:57;;;;;;;9.75;2.28;;;9.50;1.00;;;;;;5075514;28;20028;-65
2023/03/25 01:48:35;;;;;;;7.68;2.05;;;9.60;1.00;;;;;;5075883;28;20033;-64
2023/03/25 01:51:22;;;;;;;8.98;1.90;;;9.60;1.00;;;;;;5075285;28;20029;-64
2023/03/25 01:53:49;;;;;;;8.90;1.80;;;9.60;1.00;;;;;;5075706;28;20029;-64
2023/03/25 01:56:20;;;;;;;6.72;1.77;;;9.60;1.00;;;;;;5075557;28;20123;-64
2023/03/25 01:58:46;;;;;;;9.88;1.77;;;9.60;1.00;;;;;;5075434;28;20501;-64
2023/03/25 02:01:14;;;;;;;12.05;2.20;;;9.50;1.70;;;;;;5075680;28;20052;-63
2023/03/25 02:03:45;;;;;;;7.55;2.17;;;9.50;1.00;;;;;;5075509;28;20099;-64
2023/03/25 02:06:25;;;;;;;8.73;2.63;;;9.50;4.90;;;;;;5075116;28;20039;-64
2023/03/25 02:08:53;;;;;;;9.15;1.90;;;9.50;7.70;;;;;;5075723;28;20382;-64
2023/03/25 02:11:18;;;;;;;7.57;2.33;;;9.50;19.10;;;;;;5075567;28;20455;-64
2023/03/25 02:13:44;;;;;;;7.32;2.00;;;9.40;23.40;;;;;;5075323;28;20059;-64
2023/03/25 02:19:21;;;;;;;10.13;2.78;;;9.30;21.80;;;;;;5111262;27;20376;-64
2023/03/25 02:22:19;;;;;;;10.18;1.92;;;9.30;19.90;;;;;;5111084;28;20028;-64
2023/03/25 02:25:03;;;;;;;7.50;2.35;;;9.30;20.80;;;;;;5111106;28;20132;-64
2023/03/25 02:27:48;;;;;;;8.13;1.90;;;9.30;19.60;;;;;;5111220;28;20027;-64
2023/03/25 02:30:33;;;;;;;7.40;2.13;;;9.30;16.40;;;;;;5110926;28;20097;-64
2023/03/25 02:33:27;;;;;;;8.85;2.03;;;9.30;18.20;;;;;;5111194;28;20393;-64
2023/03/25 02:36:23;;;;;;;9.23;2.03;;;9.30;18.80;;;;;;5111104;28;20478;-64
2023/03/25 02:38:56;;;;;;;7.00;2.30;;;9.40;13.00;;;;;;5110757;28;20028;-64
2023/03/25 02:41:31;;;;;;;7.20;2.47;;;9.30;19.00;;;;;;5110822;28;20055;-64
2023/03/25 02:44:20;;;;;;;6.65;2.10;;;9.30;16.50;;;;;;5110764;28;20020;-64
2023/03/25 02:46:50;;;;;;;8.85;2.35;;;9.30;15.80;;;;;;5110410;28;20016;-65
2023/03/25 02:49:24;;;;;;;9.52;2.00;;;9.20;10.50;;;;;;5110782;28;20362;-64
2023/03/25 02:52:12;;;;;;;8.52;2.08;;;9.30;10.10;;;;;;5110586;28;20028;-64
2023/03/25 02:54:40;;;;;;;9.57;1.75;;;9.30;9.90;;;;;;5110757;28;20073;-64
2023/03/25 02:57:07;;;;;;;7.15;2.15;;;9.30;4.70;;;;;;5110263;28;20370;-64
2023/03/25 02:59:37;;;;;;;4.88;1.83;;;9.30;3.90;;;;;;5110655;28;20085;-64
2023/03/25 03:02:06;;;;;;;8.63;2.10;;;9.20;1.00;;;;;;5110444;28;20027;-63
2023/03/25 03:04:43;;;;;;;7.22;1.95;;;9.20;5.70;;;;;;5110596;28;20034;-64
2023/03/25 03:07:10;;;;;;;6.22;1.70;;;9.20;6.90;;;;;;5110298;28;20028;-64
2023/03/25 03:09:48;;;;;;;5.80;1.70;;;9.10;10.40;;;;;;5110394;28;20023;-64
2023/03/25 03:12:32;;;;;;;10.00;2.00;;;9.20;10.50;;;;;;5110102;28;20389;-63
2023/03/25 03:15:24;;;;;;;7.78;1.98;;;9.20;11.60;;;;;;5110161;28;20042;-64
2023/03/25 03:18:07;;;;;;;7.45;1.90;;;9.20;13.30;;;;;;5109914;28;20494;-64
2023/03/25 03:20:41;;;;;;;9.93;2.38;;;9.30;1.00;;;;;;5110240;28;20028;-64
2023/03/25 03:23:13;;;;;;;11.00;2.40;;;9.20;1.00;;;;;;5110111;28;20024;-64
2023/03/25 03:28:34;;;;;;;5.47;1.35;;;9.20;1.00;;;;;;5111312;27;20351;-63
2023/03/25 03:31:08;;;;;;;5.55;1.48;;;9.30;1.00;;;;;;5111350;28;20140;-63
2023/03/25 03:33:41;;;;;;;9.30;2.15;;;9.30;1.00;;;;;;5111285;28;20020;-63
2023/03/25 03:36:08;;;;;;;;;;;9.30;1.00;;;;;;5111740;28;20027;-63
2023/03/25 03:38:41;;;;;;;7.80;1.70;;;9.30;1.00;;;;;;5110986;28;19903;-63
2023/03/25 03:41:09;;;;;;;8.60;2.33;;;9.30;1.00;;;;;;5111130;28;20059;-63
2023/03/25 03:43:41;;;;;;;7.35;1.90;;;9.30;1.00;;;;;;5110718;28;20032;-64
2023/03/25 03:46:32;;;;;;;6.55;1.65;;;9.20;1.00;;;;;;5110746;28;20039;-64
2023/03/25 03:49:01;;;;;;;4.75;1.75;;;9.20;1.00;;;;;;5111069;28;20077;-63
2023/03/25 03:51:37;;;;;;;7.63;1.65;;;9.20;1.00;;;;;;5110839;28;20028;-63
2023/03/25 03:54:14;;;;;;;5.78;1.80;;;9.20;1.00;;;;;;5110626;28;20031;-63
2023/03/25 03:57:01;;;;;;;5.63;1.80;;;9.20;1.00;;;;;;5110452;28;20582;-63
2023/03/25 03:59:56;;;;;;;5.07;1.50;;;9.30;1.00;;;;;;5110427;28;20570;-64
2023/03/25 04:02:46;;;;;;;5.57;1.73;;;9.30;1.00;;;;;;5110696;28;20035;-63
2023/03/25 04:05:15;;;;;;;6.07;2.20;;;9.30;1.00;;;;;;5110634;28;20081;-64
2023/03/25 04:07:55;;;;;;;4.80;2.03;;;9.30;1.00;;;;;;5089999;28;20032;-63
2023/03/25 04:10:33;;;;;;;4.85;1.70;;;9.20;1.00;;;;;;5090549;28;20028;-64
2023/03/25 04:13:02;;;;;;;5.43;2.20;;;9.20;1.00;;;;;;5090038;28;20048;-64
2023/03/25 04:15:28;;;;;;;7.07;2.28;;;9.20;1.00;;;;;;5089951;28;20066;-64
2023/03/25 04:17:54;;;;;;;5.35;2.00;;;9.20;1.00;;;;;;5090006;28;20529;-63
2023/03/25 04:20:23;;;;;;;4.95;2.13;;;9.20;1.00;;;;;;5089997;28;20032;-63
2023/03/25 04:22:51;;;;;;;5.45;2.22;;;9.20;1.00;;;;;;5090360;28;20405;-64
2023/03/25 04:25:20;;;;;;;6.05;2.22;;;9.20;1.00;;;;;;5089502;28;20028;-64
2023/03/25 04:27:47;;;;;;;6.43;2.47;;;9.20;1.00;;;;;;5089410;28;20044;-64
2023/03/25 04:30:16;;;;;;;4.05;2.22;;;;;;;;;;5089765;28;20363;-64
2023/03/25 04:32:45;;;;;;;4.80;1.85;;;;;;;;;;5088254;28;20028;-63
2023/03/25 04:35:13;;;;;;;7.20;2.25;;;8.90;1.00;;;;;;5089534;28;20498;-63
2023/03/25 04:37:40;;;;;;;6.47;1.80;;;8.80;5.70;;;;;;5087600;28;20477;-63
2023/03/25 04:40:08;;;;;;;4.35;1.67;;;8.70;12.30;;;;;;5075850;28;20024;-64
2023/03/25 04:42:36;;;;;;;5.65;2.35;;;8.80;17.60;;;;;;5075999;28;20367;-63
2023/03/25 04:45:03;;;;;;;7.22;1.88;;;8.70;21.70;;;;;;5076157;28;20029;-64
2023/03/25 04:47:29;;;;;;;5.03;2.03;;;8.70;26.30;;;;;;5075859;28;20116;-64
2023/03/25 04:49:55;;;;;;;6.97;2.10;;;8.60;29.40;;;;;;5076222;28;20111;-63
2023/03/25 04:52:20;;;;;;;7.05;1.85;;;8.60;33.50;;;;;;5076163;28;20083;-64
2023/03/25 04:54:46;;;;;;;8.45;2.50;;;8.60;30.90;;;;;;5075691;28;20025;-64
2023/03/25 04:57:11;;;;;;;6.47;2.25;;;8.70;30.10;;;;;;5075892;28;20029;-64
2023/03/25 04:59:37;;;;;;;4.32;1.95;;;8.70;35.70;;;;;;5075593;28;20435;-64
2023/03/25 05:02:04;;;;;;;6.03;1.85;;;8.70;44.10;;;;;;5075800;28;20492;-64
2023/03/25 05:04:30;;;;;;;5.68;3.03;;;8.70;46.70;;;;;;5075698;28;20028;-64
2023/03/25 05:06:56;;;;;;;9.40;2.30;;;8.60;61.10;;;;;;5075651;28;20034;-65
2023/03/25 05:09:22;;;;;;;7.78;2.65;;;8.60;59.00;;;;;;5075650;28;20103;-64
2023/03/25 05:11:49;;;;;;;8.60;2.20;;;8.50;46.90;;;;;;5075523;28;20016;-65
2023/03/25 05:14:18;;;;;;;9.35;3.20;;;8.60;45.00;;;;;;5075022;28;20024;-64
2023/03/25 05:16:44;;;;;;;5.75;1.73;;;8.60;43.80;;;;;;5075278;28;20502;-64
2023/03/25 05:19:09;;;;;;;7.40;2.53;;;8.60;40.70;;;;;;5075446;28;20024;-64
2023/03/25 05:21:37;;;;;;;6.88;2.13;;;8.70;38.10;;;;;;5075336;28;20032;-64
2023/03/25 05:24:07;;;;;;;5.80;2.05;;;8.70;27.80;;;;;;5075380;28;20395;-64
2023/03/25 05:26:33;;;;;;;8.57;2.90;;;8.70;26.80;;;;;;5074869;28;20109;-65
2023/03/25 05:29:04;;;;;;;9.65;2.17;;;8.70;25.50;;;;;;5075277;28;20378;-64
2023/03/25 05:31:30;;;;;;;6.28;2.35;;;8.80;22.10;;;;;;5075185;28;20021;-64
2023/03/25 05:33:56;;;;;;;6.13;2.10;;;8.80;18.10;;;;;;5075079;28;20432;-64
2023/03/25 05:36:25;;;;;;;7.95;2.00;;;8.80;24.70;;;;;;5074905;28;20108;-64
2023/03/25 05:38:53;;;;;;;10.32;2.20;;;8.70;24.90;;;;;;5075356;28;20445;-64
2023/03/25 05:41:21;;;;;;;7.35;2.35;;;8.80;31.20;;;;;;5074960;28;20059;-64
2023/03/25 05:43:49;;;;;;;8.43;2.25;;;8.70;31.60;;;;;;5074932;28;20041;-64
2023/03/25 05:46:16;;;;;;;7.55;2.03;;;8.80;32.00;;;;;;5074894;28;20180;-64
2023/03/25 05:48:42;;;;;;;9.70;2.08;;;8.70;28.20;;;;;;5074925;28;20024;-64
2023/03/25 05:51:14;;;;;;;7.50;2.15;;;8.70;27.80;;;;;;5073769;28;20039;-64
2023/03/25 05:53:42;;;;;;;6.43;2.58;;;8.80;23.30;;;;;;5074854;28;20032;-64
2023/03/25 05:56:08;;;;;;;11.18;2.45;;;8.80;23.60;;;;;;5074764;28;20394;-64
2023/03/25 05:58:35;;;;;;;8.20;2.28;;;8.80;33.10;;;;;;5074473;28;20021;-65
2023/03/25 06:01:01;;;;;;;5.88;2.10;;;8.70;31.80;;;;;;5074370;28;20033;-64
2023/03/25 06:03:27;;;;;;;9.15;2.80;;;8.80;34.60;;;;;;5074222;28;20025;-64
2023/03/25 06:05:53;;;;;;;7.10;2.13;;;8.70;30.20;;;;;;5074622;28;20021;-64
2023/03/25 06:08:24;;;;;;;6.97;2.28;;;8.80;31.50;;;;;;5074178;28;20108;-63
2023/03/25 06:10:53;;;;;;;12.50;2.72;;;8.70;35.80;;;;;;5074371;28;20024;-64
2023/03/25 06:13:19;;;;;;;12.23;2.38;;;8.80;41.10;;;;;;5074283;28;20078;-63
2023/03/25 06:15:44;;;;;;;13.07;2.72;;;8.80;27.30;;;;;;5074135;28;20048;-64
2023/03/25 06:18:10;;;;;;;6.50;2.20;;;8.80;39.50;;;;;;5074312;28;20529;-63
2023/03/25 06:20:35;;;;;;;5.88;2.08;;;8.70;44.20;;;;;;5073996;28;20104;-64
2023/03/25 06:23:01;;;;;;;6.50;2.35;;;8.70;39.10;;;;;;5073769;28;20074;-64
2023/03/25 06:25:27;;;;;;;7.15;2.22;;;8.70;38.40;;;;;;5074081;28;20126;-65
2023/03/25 06:27:54;;;;;;;14.88;2.78;;;8.80;31.40;;;;;;5073836;28;20048;-64
2023/03/25 06:30:20;;;;;;;8.68;2.08;;;8.80;36.70;;;;;;5074163;28;20028;-64
2023/03/25 06:32:49;;;;;;;10.77;2.15;;;8.80;27.40;;;;;;5073899;28;20484;-64
2023/03/25 06:35:18;;;;;;;7.65;2.25;;;8.80;29.10;;;;;;5073936;28;20039;-64
2023/03/25 06:37:45;;;;;;;11.63;3.10;;;8.90;21.50;;;;;;5073793;28;20044;-64
2023/03/25 06:40:12;;;;;;;5.93;2.30;;;8.90;21.00;;;;;;5073844;28;20035;-64
2023/03/25 06:42:37;;;;;;;7.93;2.03;;;8.90;21.40;;;;;;5073497;28;20021;-64
2023/03/25 06:45:03;;;;;;;9.45;2.45;;;8.90;14.70;;;;;;5073851;28;20029;-64
2023/03/25 06:47:29;;;;;;;5.50;2.28;;;9.00;18.20;;;;;;5073556;28;20082;-64
2023/03/25 06:49:55;;;;;;;10.50;2.78;;;9.00;11.10;;;;;;5073957;28;20500;-64
2023/03/25 06:52:20;;;;;;;7.93;2.17;;;9.00;7.50;;;;;;5073690;28;20020;-65
2023/03/25 06:54:46;;;;;;;6.95;2.28;;;9.00;9.00;;;;;;5073714;28;20031;-64
2023/03/25 06:57:11;;;;;;;9.05;2.50;;;9.00;9.10;;;;;;5073756;28;20032;-66
2023/03/25 06:59:37;;;;;;;7.55;2.47;;;9.10;4.60;;;;;;5073664;28;20039;-64
2023/03/25 07:02:02;;;;;;;5.43;2.22;;;9.10;5.70;;;;;;5072996;28;20111;-64
2023/03/25 07:04:28;;;;;;;8.88;2.50;;;9.10;5.00;;;;;;5073654;28;20474;-64
2023/03/25 07:06:53;;;;;;;8.57;2.40;;;9.20;7.40;;;;;;5073278;28;20029;-64
2023/03/25 07:09:19;;;;;;;5.35;2.00;;;9.20;1.00;;;;;;5073450;28;20119;-64
2023/03/25 07:11:45;;;;;;;7.35;2.38;;;9.30;1.00;;;;;;5073444;28;20035;-64
2023/03/25 07:14:10;;;;;;;10.52;2.67;;;9.40;1.00;;;;;;5073381;28;20071;-64
2023/03/25 07:16:35;;;;;;;7.07;2.17;;;9.50;1.00;;;;;;5073252;28;20039;-64
2023/03/25 07:19:01;;;;;;;6.40;2.67;;;9.60;1.00;;;;;;5073384;28;20103;-64
2023/03/25 07:21:27;;;;;;;10.40;2.65;;;9.70;1.00;;;;;;5073440;28;20499;-64
2023/03/25 07:23:53;;;;;;;8.38;2.75;;;9.60;1.00;;;;;;5073310;28;20033;-64
2023/03/25 07:26:18;;;;;;;9.88;2.45;;;9.50;1.00;;;;;;5072604;28;20049;-64
2023/03/25 07:28:46;;;;;;;11.35;2.65;;;9.40;1.00;;;;;;5073255;28;20393;-64
2023/03/25 07:31:14;;;;;;;6.38;2.25;;;9.40;2.20;;;;;;5073024;28;20032;-64
2023/03/25 07:33:40;;;;;;;7.47;2.78;;;9.40;1.00;;;;;;5073124;28;20554;-64
2023/03/25 07:36:07;;;;;;;10.27;2.50;;;9.40;1.00;;;;;;5073317;28;20016;-64
2023/03/25 07:38:34;;;;;;;8.18;2.75;;;9.40;1.00;;;;;;5073264;28;20033;-64
2023/03/25 07:41:04;;;;;;;5.85;2.30;;;9.50;1.00;;;;;;5072905;28;20081;-64
2023/03/25 07:43:31;;;;;;;7.00;2.10;;;9.70;1.00;;;;;;5073189;28;20021;-64
2023/03/25 07:45:57;;;;;;;7.03;2.20;;;10.20;1.00;;;;;;5073193;28;20032;-64
2023/03/25 07:48:23;;;;;;;7.68;2.47;;;10.40;1.00;;;;;;5072958;28;20031;-64
2023/03/25 07:50:51;;;;;;;9.60;2.53;;;11.00;1.00;;;;;;5072890;28;20104;-64
2023/03/25 07:53:17;;;;;;;10.10;2.30;;;11.40;1.00;;;;;;5073130;28;20024;-64
2023/03/25 07:55:44;;;;;;;7.28;1.80;;;10.80;1.00;;;;;;5072977;28;20017;-64
2023/03/25 07:58:10;;;;;;;6.45;2.13;;;10.80;1.00;;;;;;5072615;28;20070;-64
2023/03/25 08:00:36;;;;;;;8.63;2.65;;;11.20;1.00;;;;;;5072639;28;20119;-64
2023/03/25 08:03:02;;;;;;;8.57;2.67;;;11.10;99.90;;;;;;5072828;28;20052;-64
2023/03/25 08:05:29;;;;;;;10.02;3.03;;;11.20;99.90;;;;;;5073037;28;20029;-64
2023/03/25 08:07:58;;;;;;;11.88;2.80;;;11.80;1.00;;;;;;5072693;28;20043;-64
2023/03/25 08:10:24;;;;;;;9.05;3.38;;;11.60;1.00;;;;;;5073005;28;20031;-64
2023/03/25 08:12:52;;;;;;;10.00;3.35;;;11.20;58.10;;;;;;5072732;28;20482;-64
2023/03/25 08:15:19;;;;;;;8.25;2.80;;;11.00;7.80;;;;;;5076728;28;20056;-64
2023/03/25 08:17:44;;;;;;;11.88;3.15;;;10.90;99.90;;;;;;5076545;28;20119;-64
2023/03/25 08:20:10;;;;;;;10.38;3.38;;;10.60;99.90;;;;;;5076639;28;20127;-64
2023/03/25 08:22:36;;;;;;;7.68;3.03;;;10.50;99.90;;;;;;5076487;28;20123;-64
2023/03/25 08:25:01;;;;;;;12.65;3.75;;;10.50;99.90;;;;;;5076459;28;20100;-64
2023/03/25 08:27:27;;;;;;;9.50;3.13;;;10.50;99.90;;;;;;5075707;28;20047;-64
2023/03/25 08:29:56;;;;;;;12.30;3.05;;;10.40;99.90;;;;;;5076268;28;20466;-64
2023/03/25 08:32:23;;;;;;;13.63;3.65;;;10.30;99.90;;;;;;5076250;28;20035;-64
2023/03/25 08:34:48;;;;;;;10.05;2.45;;;10.20;99.90;;;;;;5075875;28;20082;-67
2023/03/25 08:37:14;;;;;;;9.57;2.47;;;10.50;99.90;;;;;;5076289;28;20040;-64
2023/03/25 08:39:43;;;;;;;13.65;3.78;;;10.40;99.90;;;;;;5075832;28;20071;-64
2023/03/25 08:42:11;;;;;;;11.10;3.17;;;10.30;99.90;;;;;;5076124;28;20056;-64
2023/03/25 08:44:37;;;;;;;12.63;2.63;;;10.30;99.90;;;;;;5076120;28;20048;-64
2023/03/25 08:47:03;;;;;;;11.52;2.92;;;10.20;99.90;;;;;;5075932;28;20024;-64
2023/03/25 08:49:29;;;;;;;10.55;3.25;;;10.30;92.70;;;;;;5076028;28;20016;-64
2023/03/25 08:51:56;;;;;;;9.52;3.00;;;10.70;10.60;;;;;;5076034;28;20035;-64
2023/03/25 08:54:23;;;;;;;8.60;2.75;;;11.00;1.00;;;;;;5075893;28;20394;-64
2023/03/25 08:56:48;;;;;;;8.02;2.40;;;12.30;99.90;;;;;;5075450;28;20532;-64
2023/03/25 08:59:14;;;;;;;11.68;2.85;;;12.40;99.90;;;;;;5075500;28;20028;-64
2023/03/25 09:01:41;;;;;;;9.02;2.75;;;12.00;1.00;;;;;;5075588;28;20024;-64
2023/03/25 09:04:06;;;;;;;6.95;2.63;;;11.70;1.00;;;;;;5075886;28;20024;-64
2023/03/25 09:06:32;;;;;;;11.82;2.88;;;11.00;99.90;;;;;;5075701;28;20555;-64
2023/03/25 09:08:59;;;;;;;8.95;2.75;;;10.80;99.90;;;;;;5075667;28;20074;-64
2023/03/25 09:11:25;;;;;;;11.63;3.25;;;10.70;99.90;;;;;;5075733;28;20051;-64
2023/03/25 09:13:50;;;;;;;10.07;3.15;;;10.70;1.00;;;;;;5075512;28;20016;-64
2023/03/25 09:16:16;;;;;;;8.65;2.83;;;10.70;1.00;;;;;;5075470;28;20032;-64
2023/03/25 09:18:42;;;;;;;12.95;2.97;;;10.60;1.00;;;;;;5075019;28;20063;-64
2023/03/25 09:21:07;;;;;;;10.55;2.97;;;10.50;1.00;;;;;;5075372;28;20028;-64
2023/03/25 09:23:33;;;;;;;8.88;2.85;;;10.40;1.00;;;;;;5075482;28;20032;-64
2023/03/25 09:26:01;;;;;;;14.73;3.38;;;10.30;1.00;;;;;;5074674;28;20036;-64
2023/03/25 09:28:27;;;;;;;11.35;3.55;;;10.30;1.00;;;;;;5074804;28;20032;-64
2023/03/25 09:30:53;;;;;;;8.63;2.70;;;10.50;1.00;;;;;;5075176;28;20025;-64
2023/03/25 09:33:18;;;;;;;13.95;3.22;;;10.70;1.00;;;;;;5074777;28;20395;-64
2023/03/25 09:35:45;;;;;;;13.05;3.30;;;11.10;99.90;;;;;;5074822;28;20020;-64
2023/03/25 09:38:11;;;;;;;10.40;2.90;;;11.10;99.90;;;;;;5074951;28;20112;-64
2023/03/25 09:40:40;;;;;;;12.38;3.30;;;10.90;99.90;;;;;;5074958;28;20115;-64
2023/03/25 09:43:42;;;;;;;15.85;3.03;;;10.60;99.90;;;;;;5074969;28;20475;-64
2023/03/25 09:46:08;;;;;;;12.70;3.40;;;10.50;1.00;;;;;;5074565;28;20046;-64
2023/03/25 09:48:40;;;;;;;12.85;3.50;;;10.40;1.00;;;;;;5074924;28;20028;-64
2023/03/25 09:51:14;;;;;;;11.48;3.60;;;10.40;99.90;;;;;;5074653;28;20021;-64
2023/03/25 09:53:52;;;;;;;11.60;4.18;;;10.40;99.90;;;;;;5074815;28;20039;-64
2023/03/25 09:56:23;;;;;;;11.77;4.10;;;10.50;99.90;;;;;;5074702;28;20020;-64
2023/03/25 09:58:52;;;;;;;11.88;3.90;;;11.10;1.00;;;;;;5074605;28;20031;-64
2023/03/25 10:01:44;;;;;;;10.07;3.38;;;11.50;99.90;;;;;;5074411;28;20494;-64
2023/03/25 10:04:30;;;;;;;12.52;3.53;;;11.60;99.90;;;;;;5074541;28;20555;-64
2023/03/25 10:07:12;;;;;;;14.02;3.50;;;11.50;1.00;;;;;;5074359;28;20032;-64
2023/03/25 10:09:49;;;;;;;10.07;3.70;;;11.20;1.00;;;;;;5074446;28;20398;-65
2023/03/25 10:12:55;;;;;;;15.10;3.40;;;11.10;1.00;;;;;;5074294;28;20420;-65
2023/03/25 10:16:00;;;;;;;12.95;3.10;;;11.30;1.00;;;;;;5073307;28;20029;-64
2023/03/25 10:18:53;;;;;;;14.27;3.20;;;11.50;1.00;;;;;;5074219;28;20390;-64
2023/03/25 10:21:31;;;;;;;12.45;2.92;;;11.50;1.00;;;;;;5074068;28;20498;-64
2023/03/25 10:24:37;;;;;;;14.50;3.00;;;11.20;1.00;;;;;;5074212;28;20047;-64
2023/03/25 10:27:18;;;;;;;11.20;3.40;;;11.10;1.00;;;;;;5072911;28;20105;-64
2023/03/25 10:29:50;;;;;;;10.25;3.55;;;10.80;1.00;;;;;;5073960;28;20048;-64
2023/03/25 10:32:27;;;;;;;7.22;3.83;;;10.70;72.00;;;;;;5073941;28;20032;-64
2023/03/25 10:34:54;;;;;;;11.55;4.18;;;10.40;99.90;;;;;;5073853;28;20394;-64
2023/03/25 10:37:30;;;;;;;11.57;4.45;;;10.20;1.00;;;;;;5073302;28;20052;-64
2023/03/25 10:40:11;;;;;;;12.48;4.50;;;10.00;1.00;;;;;;5073991;28;20029;-64
2023/03/25 10:42:42;;;;;;;14.07;5.30;;;9.70;9.30;;;;;;5073875;28;20478;-64
2023/03/25 10:45:13;;;;;;;15.15;5.40;;;9.60;31.50;;;;;;5073891;28;20032;-64
2023/03/25 10:47:42;;;;;;;16.23;4.95;;;9.60;27.40;;;;;;5073542;28;20020;-64
2023/03/25 10:50:14;;;;;;;16.83;5.55;;;9.60;43.30;;;;;;5073750;28;20035;-64
2023/03/25 10:52:40;;;;;;;20.75;6.32;;;9.60;70.30;;;;;;5073757;28;20020;-64
2023/03/25 10:55:24;;;;;;;16.92;5.40;;;9.60;84.30;;;;;;5073778;28;20482;-64
2023/03/25 10:57:50;;;;;;;13.77;5.38;;;9.70;84.90;;;;;;5073182;28;20048;-64
2023/03/25 11:00:18;;;;;;;16.83;4.90;;;9.70;91.50;;;;;;5073253;28;20028;-64
2023/03/25 11:02:45;;;;;;;16.55;5.57;;;9.80;92.90;;;;;;5073610;28;20055;-64
2023/03/25 11:05:17;;;;;;;19.73;5.82;;;9.80;93.00;;;;;;5073648;28;20483;-65
2023/03/25 11:07:49;;;;;;;19.17;5.03;;;9.80;79.80;;;;;;5073282;28;20024;-64
2023/03/25 11:10:20;;;;;;;22.35;6.18;;;9.80;91.20;;;;;;5073242;28;20390;-64
2023/03/25 11:12:48;;;;;;;19.35;5.85;;;;;;;;;;5073501;28;20017;-64
2023/03/25 11:15:24;;;;;;;18.77;4.70;;;10.80;65.00;;;;;;5072982;28;20052;-64
2023/03/25 11:18:14;;;;;;;11.45;4.25;;;11.40;1.00;;;;;;5073408;28;20036;-64
2023/03/25 11:20:46;;;;;;;11.13;3.17;;;11.80;1.00;;;;;;5073351;28;20032;-64
2023/03/25 11:23:35;;;;;;;17.40;4.55;;;11.80;1.00;;;;;;5073318;28;20119;-65
2023/03/25 11:26:05;;;;;;;13.18;4.32;;;12.20;1.00;;;;;;5073351;28;20120;-64
2023/03/25 11:28:40;;;;;;;13.35;3.97;;;12.40;1.00;;;;;;5072939;28;20039;-64
2023/03/25 11:31:26;;;;;;;15.00;4.45;;;12.60;1.00;;;;;;5072895;28;20024;-65
2023/03/25 11:34:14;;;;;;;11.23;3.92;;;12.60;99.90;;;;;;5073231;28;20482;-64
2023/03/25 11:36:54;;;;;;;14.45;4.78;;;12.20;99.90;;;;;;5072979;28;20028;-64
2023/03/25 11:39:31;;;;;;;10.75;4.47;;;11.40;99.90;;;;;;5073046;28;20039;-64
2023/03/25 11:41:57;;;;;;;12.50;4.55;;;11.00;1.00;;;;;;5073085;28;20055;-64
2023/03/25 11:44:32;;;;;;;15.63;5.05;;;10.60;1.00;;;;;;5072717;28;20027;-64
2023/03/25 11:47:01;;;;;;;15.70;4.95;;;10.50;1.00;;;;;;5073091;28;20493;-67
2023/03/25 11:49:30;;;;;;;12.13;4.43;;;10.40;4.40;;;;;;5076003;28;20032;-64
2023/03/25 11:52:00;;;;;;;16.92;5.05;;;10.30;1.00;;;;;;5077079;28;20379;-64
2023/03/25 11:54:26;;;;;;;16.05;5.38;;;10.20;28.80;;;;;;5077034;28;20020;-64
2023/03/25 11:56:54;;;;;;;10.95;4.88;;;10.40;50.90;;;;;;5077004;28;20450;-64
2023/03/25 11:59:24;;;;;;;16.17;4.80;;;10.50;9.50;;;;;;5076754;28;20024;-64
2023/03/25 12:01:59;;;;;;;18.83;5.38;;;10.60;17.90;;;;;;5076515;28;20028;-64
2023/03/25 12:04:24;;;;;;;15.45;5.05;;;10.50;13.80;;;;;;5076757;28;20029;-64
2023/03/25 12:07:00;;;;;;;19.02;4.68;;;10.90;27.80;;;;;;5076523;28;20112;-64
2023/03/25 12:09:28;;;;;;;13.20;4.57;;;11.10;1.00;;;;;;5076683;28;20094;-64
2023/03/25 12:12:26;;;;;;;11.48;4.50;;;11.00;1.00;;;;;;5076626;28;20025;-64
2023/03/25 12:15:10;;;;;;;17.48;4.38;;;11.20;1.00;;;;;;5076411;28;20028;-64
2023/03/25 12:18:14;;;;;;;20.42;4.57;;;11.60;1.00;;;;;;5076308;28;20024;-64
2023/03/25 12:21:20;;;;;;;14.02;3.70;;;12.30;1.00;;;;;;5076439;28;20244;-64
2023/03/25 12:24:04;;;;;;;14.65;3.67;;;12.40;1.00;;;;;;5076301;28;20035;-64
2023/03/25 12:26:50;;;;;;;9.55;3.05;;;12.60;99.90;;;;;;5076222;28;20044;-64
2023/03/25 12:32:30;;;;;;;12.40;3.22;;;12.80;43.40;;;;;;5111054;27;20113;-64
2023/03/25 12:35:21;;;;;;;8.60;2.40;;;12.60;1.00;;;;;;5110839;28;20110;-63
2023/03/25 12:41:12;;;;;;;4.40;1.83;;;12.30;99.90;;;;;;5070527;28;20387;-63
2023/03/25 12:44:18;;;;;;;10.05;2.30;;;11.90;99.90;;;;;;5070485;28;20390;-63
2023/03/25 12:46:58;;;;;;;9.30;2.38;;;11.90;99.90;;;;;;5070358;28;20036;-64
2023/03/25 12:49:51;;;;;;;13.38;2.90;;;11.80;99.90;;;;;;5070274;28;20115;-64
2023/03/25 12:52:41;;;;;;;9.10;2.53;;;11.70;99.90;;;;;;5070413;28;20394;-66
2023/03/25 12:55:35;;;;;;;12.18;2.70;;;11.50;99.90;;;;;;5070264;28;20060;-64
2023/03/25 12:58:24;;;;;;;13.25;2.75;;;11.10;1.00;;;;;;5070697;28;20497;-63
2023/03/25 13:01:21;;;;;;;11.90;2.72;;;11.20;1.00;;;;;;5070370;28;20037;-64
2023/03/25 13:04:07;;;;;;;11.82;3.28;;;11.00;99.90;;;;;;5070212;28;20364;-64
2023/03/25 13:06:58;;;;;;;10.77;3.03;;;10.70;99.90;;;;;;5070338;28;20094;-65
2023/03/25 13:09:52;;;;;;;17.15;2.63;;;10.60;99.90;;;;;;5069751;28;20020;-64
2023/03/25 13:12:39;;;;;;;13.25;2.75;;;10.70;99.90;;;;;;5069850;28;20092;-64
2023/03/25 13:15:37;;;;;;;8.40;2.65;;;10.80;99.90;;;;;;5070103;28;20516;-64
2023/03/25 13:18:26;;;;;;;5.85;2.22;;;10.70;99.90;;;;;;5069926;28;20120;-64
2023/03/25 13:21:16;;;;;;;6.38;2.30;;;10.20;99.90;;;;;;5069729;28;20064;-64
2023/03/25 13:23:45;;;;;;;7.25;2.42;;;10.00;1.00;;;;;;5069950;28;20050;-64
2023/03/25 13:26:17;;;;;;;7.70;2.75;;;10.10;1.00;;;;;;5069857;28;20053;-64
2023/03/25 13:28:46;;;;;;;9.27;2.13;;;10.30;1.00;;;;;;5069955;28;20024;-64
2023/03/25 13:31:26;;;;;;;8.50;2.28;;;10.60;1.00;;;;;;5070040;28;20025;-64